Time,TemperatureF,DewpointF,PressureIn,WindDirection,WindDirectionDegrees,WindSpeedMPH,WindSpeedGustMPH,Humidity,HourlyPrecipIn,Conditions,Clouds,dailyrainin,SolarRadiationWatts/m^2,SoftwareType,DateUTC
2013-06-09 00:01:00,54.5,48.5,30.10,NNW,327,5.0,6.0,80,0.00,,,0.00,0,Wunderground v.1.15,2013-06-09 07:01:00,
2013-06-09 00:07:00,54.2,48.5,30.10,NW,315,1.0,8.0,81,0.00,,,0.00,0,Wunderground v.1.15,2013-06-09 07:07:00,
2013-06-09 00:12:00,54.0,48.3,30.10,NNW,335,4.0,5.0,81,0.00,,,0.00,0,Wunderground v.1.15,2013-06-09 07:12:00,
2013-06-09 00:18:00,53.8,48.4,30.10,NW,306,5.0,7.0,82,0.00,,,0.00,0,Wunderground v.1.15,2013-06-09 07:18:00,
2013-06-09 00:24:00,53.7,48.3,30.10,NW,307,2.0,8.0,82,0.00,,,0.00,0,Wunderground v.1.15,2013-06-09 07:24:00,
2013-06-09 00:30:00,53.7,48.3,30.10,NW,311,1.0,4.0,82,0.00,,,0.00,0,Wunderground v.1.15,2013-06-09 07:30:00,
2013-06-09 00:35:00,53.5,48.1,30.10,NNW,336,5.0,5.0,82,0.00,,,0.00,0,Wunderground v.1.15,2013-06-09 07:35:00,
2013-06-09 00:40:00,53.4,48.4,30.10,NNW,327,0.0,2.0,83,0.00,,,0.00,0,Wunderground v.1.15,2013-06-09 07:40:00,
2013-06-09 00:46:00,53.3,48.3,30.10,NNW,327,0.0,4.0,83,0.00,,,0.00,0,Wunderground v.1.15,2013-06-09 07:46:00,
2013-06-09 00:52:00,53.3,48.3,30.10,NW,317,1.0,2.0,83,0.00,,,0.00,0,Wunderground v.1.15,2013-06-09 07:52:00,
2013-06-09 00:57:00,53.1,48.1,30.10,NW,317,1.0,2.0,83,0.00,,,0.00,0,Wunderground v.1.15,2013-06-09 07:57:00,
2013-06-09 01:02:00,53.1,48.1,30.10,NW,317,0.0,2.0,83,0.00,,,0.00,0,Wunderground v.1.15,2013-06-09 08:02:00,
2013-06-09 01:08:00,52.6,47.6,30.10,NW,317,1.0,2.0,83,0.00,,,0.00,0,Wunderground v.1.15,2013-06-09 08:08:00,
2013-06-09 01:14:00,51.7,47.3,30.10,NW,317,0.0,1.0,85,0.00,,,0.00,0,Wunderground v.1.15,2013-06-09 08:14:00,
2013-06-09 01:19:00,51.1,46.7,30.10,North,360,1.0,5.0,85,0.00,,,0.00,0,Wunderground v.1.15,2013-06-09 08:19:00,
2013-06-09 01:24:00,50.9,46.9,30.10,North,360,3.0,3.0,86,0.00,,,0.00,0,Wunderground v.1.15,2013-06-09 08:24:00,
2013-06-09 01:30:00,50.6,46.6,30.10,NE,46,1.0,2.0,86,0.00,,,0.00,0,Wunderground v.1.15,2013-06-09 08:30:00,
2013-06-09 01:36:00,51.2,47.2,30.10,NE,46,0.0,3.0,86,0.00,,,0.00,0,Wunderground v.1.15,2013-06-09 08:36:00,
2013-06-09 01:41:00,51.1,47.1,30.10,NE,46,3.0,3.0,86,0.00,,,0.00,0,Wunderground v.1.15,2013-06-09 08:41:00,
2013-06-09 01:47:00,50.9,46.9,30.10,NE,46,1.0,3.0,86,0.00,,,0.00,0,Wunderground v.1.15,2013-06-09 08:47:00,
2013-06-09 01:53:00,50.4,46.7,30.10,NE,46,2.0,2.0,87,0.00,,,0.00,0,Wunderground v.1.15,2013-06-09 08:53:00,
2013-06-09 01:59:00,50.0,46.3,30.09,NE,46,2.0,4.0,87,0.00,,,0.00,0,Wunderground v.1.15,2013-06-09 08:59:00,
2013-06-09 02:04:00,49.8,46.1,30.10,NE,46,0.0,2.0,87,0.00,,,0.00,0,Wunderground v.1.15,2013-06-09 09:04:00,
2013-06-09 02:09:00,49.8,46.4,30.10,NE,46,0.0,2.0,88,0.00,,,0.00,0,Wunderground v.1.15,2013-06-09 09:09:00,
2013-06-09 02:14:00,49.7,46.3,30.10,NE,46,0.0,0.0,88,0.00,,,0.00,0,Wunderground v.1.15,2013-06-09 09:14:00,
2013-06-09 02:19:00,49.6,46.2,30.10,NE,46,0.0,0.0,88,0.00,,,0.00,0,Wunderground v.1.15,2013-06-09 09:19:00,
2013-06-09 02:24:00,49.4,46.0,30.10,NE,46,0.0,2.0,88,0.00,,,0.00,0,Wunderground v.1.15,2013-06-09 09:24:00,
2013-06-09 02:29:00,49.1,45.7,30.09,NE,46,0.0,2.0,88,0.00,,,0.00,0,Wunderground v.1.15,2013-06-09 09:29:00,
2013-06-09 02:34:00,48.9,45.5,30.10,NE,46,1.0,2.0,88,0.00,,,0.00,0,Wunderground v.1.15,2013-06-09 09:34:00,
2013-06-09 02:39:00,49.0,45.6,30.10,NE,46,0.0,3.0,88,0.00,,,0.00,0,Wunderground v.1.15,2013-06-09 09:39:00,
2013-06-09 02:44:00,49.2,45.8,30.09,NE,46,0.0,1.0,88,0.00,,,0.00,0,Wunderground v.1.15,2013-06-09 09:44:00,
2013-06-09 02:49:00,49.3,45.9,30.10,NE,46,1.0,2.0,88,0.00,,,0.00,0,Wunderground v.1.15,2013-06-09 09:49:00,
2013-06-09 02:54:00,49.5,46.1,30.09,North,5,0.0,4.0,88,0.00,,,0.00,0,Wunderground v.1.15,2013-06-09 09:54:00,
2013-06-09 02:59:00,49.7,46.3,30.10,North,5,0.0,4.0,88,0.00,,,0.00,0,Wunderground v.1.15,2013-06-09 09:59:00,
2013-06-09 03:04:00,49.6,46.2,30.10,North,5,2.0,3.0,88,0.00,,,0.00,0,Wunderground v.1.15,2013-06-09 10:04:00,
2013-06-09 03:09:00,49.5,46.1,30.09,North,5,2.0,3.0,88,0.00,,,0.00,0,Wunderground v.1.15,2013-06-09 10:09:00,
2013-06-09 03:14:00,49.4,46.0,30.09,North,5,3.0,3.0,88,0.00,,,0.00,0,Wunderground v.1.15,2013-06-09 10:14:00,
2013-06-09 03:19:00,49.2,45.8,30.09,North,5,1.0,4.0,88,0.00,,,0.00,0,Wunderground v.1.15,2013-06-09 10:19:00,
2013-06-09 03:24:00,49.3,45.9,30.09,North,5,2.0,4.0,88,0.00,,,0.00,0,Wunderground v.1.15,2013-06-09 10:24:00,
2013-06-09 03:29:00,49.4,46.0,30.09,North,5,3.0,4.0,88,0.00,,,0.00,0,Wunderground v.1.15,2013-06-09 10:29:00,
2013-06-09 03:34:00,49.4,46.0,30.09,North,5,3.0,4.0,88,0.00,,,0.00,0,Wunderground v.1.15,2013-06-09 10:34:00,
2013-06-09 03:39:00,49.3,45.9,30.09,North,5,0.0,4.0,88,0.00,,,0.00,0,Wunderground v.1.15,2013-06-09 10:39:00,
2013-06-09 03:44:00,49.4,46.0,30.09,North,5,1.0,3.0,88,0.00,,,0.00,0,Wunderground v.1.15,2013-06-09 10:44:00,
2013-06-09 03:49:00,49.7,46.3,30.09,North,5,2.0,3.0,88,0.00,,,0.00,0,Wunderground v.1.15,2013-06-09 10:49:00,
2013-06-09 03:54:00,49.8,46.4,30.09,North,5,0.0,2.0,88,0.00,,,0.00,0,Wunderground v.1.15,2013-06-09 10:54:00,
2013-06-09 03:59:00,49.9,46.5,30.09,North,5,0.0,2.0,88,0.00,,,0.00,0,Wunderground v.1.15,2013-06-09 10:59:00,
2013-06-09 04:04:00,50.1,46.7,30.09,North,5,0.0,1.0,88,0.00,,,0.00,0,Wunderground v.1.15,2013-06-09 11:04:00,
2013-06-09 04:09:00,50.2,46.8,30.09,North,5,0.0,2.0,88,0.00,,,0.00,0,Wunderground v.1.15,2013-06-09 11:09:00,
2013-06-09 04:14:00,50.5,47.1,30.09,North,5,0.0,2.0,88,0.00,,,0.00,0,Wunderground v.1.15,2013-06-09 11:14:00,
2013-06-09 04:19:00,50.7,47.3,30.09,North,5,0.0,2.0,88,0.00,,,0.00,0,Wunderground v.1.15,2013-06-09 11:19:00,
2013-06-09 04:24:00,50.7,47.3,30.09,North,5,1.0,1.0,88,0.00,,,0.00,0,Wunderground v.1.15,2013-06-09 11:24:00,
2013-06-09 04:29:00,50.7,47.3,30.09,North,5,0.0,2.0,88,0.00,,,0.00,0,Wunderground v.1.15,2013-06-09 11:29:00,
2013-06-09 04:34:00,50.3,46.9,30.09,North,5,0.0,0.0,88,0.00,,,0.00,0,Wunderground v.1.15,2013-06-09 11:34:00,
2013-06-09 04:39:00,50.2,46.8,30.09,North,5,0.0,0.0,88,0.00,,,0.00,0,Wunderground v.1.15,2013-06-09 11:39:00,
2013-06-09 04:44:00,49.9,46.5,30.09,North,5,0.0,0.0,88,0.00,,,0.00,0,Wunderground v.1.15,2013-06-09 11:44:00,
2013-06-09 04:50:00,49.7,46.3,30.09,North,5,0.0,0.0,88,0.00,,,0.00,0,Wunderground v.1.15,2013-06-09 11:50:00,
2013-06-09 04:55:00,49.6,46.2,30.08,North,5,0.0,0.0,88,0.00,,,0.00,0,Wunderground v.1.15,2013-06-09 11:55:00,
2013-06-09 05:00:00,49.6,46.2,30.08,North,5,0.0,0.0,88,0.00,,,0.00,0,Wunderground v.1.15,2013-06-09 12:00:00,
2013-06-09 05:05:00,49.7,46.3,30.08,North,5,0.0,0.0,88,0.00,,,0.00,0,Wunderground v.1.15,2013-06-09 12:05:00,
2013-06-09 05:10:00,49.6,46.2,30.08,North,5,0.0,0.0,88,0.00,,,0.00,0,Wunderground v.1.15,2013-06-09 12:10:00,
2013-06-09 05:15:00,49.4,46.0,30.08,North,5,0.0,0.0,88,0.00,,,0.00,0,Wunderground v.1.15,2013-06-09 12:15:00,
2013-06-09 05:20:00,49.4,46.0,30.08,North,5,0.0,0.0,88,0.00,,,0.00,0,Wunderground v.1.15,2013-06-09 12:20:00,
2013-06-09 05:25:00,49.2,45.8,30.08,North,5,0.0,0.0,88,0.00,,,0.00,5,Wunderground v.1.15,2013-06-09 12:25:00,
2013-06-09 05:30:00,49.1,45.7,30.08,North,5,0.0,0.0,88,0.00,,,0.00,7,Wunderground v.1.15,2013-06-09 12:30:00,
2013-06-09 05:35:00,48.8,46.6,30.08,North,5,1.0,1.0,92,0.00,,,0.00,7,Wunderground v.1.15,2013-06-09 12:35:00,
2013-06-09 05:40:00,48.7,45.3,30.09,North,5,0.0,0.0,88,0.00,,,0.00,9,Wunderground v.1.15,2013-06-09 12:40:00,
2013-06-09 05:45:00,48.7,45.3,30.09,North,5,0.0,1.0,88,0.00,,,0.00,12,Wunderground v.1.15,2013-06-09 12:45:00,
2013-06-09 05:50:00,48.7,45.3,30.08,North,5,0.0,0.0,88,0.00,,,0.00,16,Wunderground v.1.15,2013-06-09 12:50:00,
2013-06-09 05:55:00,48.8,45.4,30.09,North,5,0.0,2.0,88,0.00,,,0.00,16,Wunderground v.1.15,2013-06-09 12:55:00,
2013-06-09 06:00:00,48.9,45.5,30.08,North,5,0.0,0.0,88,0.00,,,0.00,23,Wunderground v.1.15,2013-06-09 13:00:00,
2013-06-09 06:05:00,49.1,45.7,30.08,North,5,0.0,0.0,88,0.00,,,0.00,37,Wunderground v.1.15,2013-06-09 13:05:00,
2013-06-09 06:10:00,49.3,45.9,30.08,North,5,0.0,0.0,88,0.00,,,0.00,56,Wunderground v.1.15,2013-06-09 13:10:00,
2013-06-09 06:15:00,49.5,46.1,30.08,North,5,0.0,2.0,88,0.00,,,0.00,72,Wunderground v.1.15,2013-06-09 13:15:00,
2013-06-09 06:20:00,49.5,46.1,30.08,North,5,0.0,0.0,88,0.00,,,0.00,81,Wunderground v.1.15,2013-06-09 13:20:00,
2013-06-09 06:25:00,49.7,46.3,30.08,North,5,0.0,0.0,88,0.00,,,0.00,74,Wunderground v.1.15,2013-06-09 13:25:00,
2013-06-09 06:30:00,49.8,46.4,30.08,North,5,0.0,0.0,88,0.00,,,0.00,63,Wunderground v.1.15,2013-06-09 13:30:00,
2013-06-09 06:35:00,49.9,46.5,30.09,North,5,0.0,0.0,88,0.00,,,0.00,63,Wunderground v.1.15,2013-06-09 13:35:00,
2013-06-09 06:40:00,50.0,46.6,30.09,North,5,0.0,0.0,88,0.00,,,0.00,65,Wunderground v.1.15,2013-06-09 13:40:00,
2013-06-09 06:45:00,50.0,46.6,30.09,North,5,0.0,1.0,88,0.00,,,0.00,67,Wunderground v.1.15,2013-06-09 13:45:00,
2013-06-09 06:50:00,50.1,46.7,30.09,North,5,1.0,1.0,88,0.00,,,0.00,72,Wunderground v.1.15,2013-06-09 13:50:00,
2013-06-09 06:55:00,50.2,46.8,30.09,North,5,0.0,2.0,88,0.00,,,0.00,79,Wunderground v.1.15,2013-06-09 13:55:00,
2013-06-09 07:00:00,50.4,46.7,30.09,East,92,0.0,0.0,87,0.00,,,0.00,84,Wunderground v.1.15,2013-06-09 14:00:00,
2013-06-09 07:05:00,50.6,47.2,30.09,East,94,0.0,1.0,88,0.00,,,0.00,88,Wunderground v.1.15,2013-06-09 14:05:00,
2013-06-09 07:10:00,50.9,47.5,30.08,East,94,0.0,0.0,88,0.00,,,0.00,95,Wunderground v.1.15,2013-06-09 14:10:00,
2013-06-09 07:15:00,51.2,47.8,30.09,East,94,0.0,1.0,88,0.00,,,0.00,102,Wunderground v.1.15,2013-06-09 14:15:00,
2013-06-09 07:20:00,51.5,48.1,30.09,East,94,0.0,0.0,88,0.00,,,0.00,109,Wunderground v.1.15,2013-06-09 14:20:00,
2013-06-09 07:25:00,51.7,48.3,30.09,East,94,0.0,0.0,88,0.00,,,0.00,104,Wunderground v.1.15,2013-06-09 14:25:00,
2013-06-09 07:30:00,51.9,48.5,30.09,East,94,0.0,0.0,88,0.00,,,0.00,109,Wunderground v.1.15,2013-06-09 14:30:00,
2013-06-09 07:36:00,52.0,48.6,30.09,East,94,0.0,1.0,88,0.00,,,0.00,121,Wunderground v.1.15,2013-06-09 14:36:00,
2013-06-09 07:41:00,52.2,48.8,30.09,East,97,1.0,1.0,88,0.00,,,0.00,125,Wunderground v.1.15,2013-06-09 14:41:00,
2013-06-09 07:46:00,52.5,48.7,30.09,SE,141,0.0,1.0,87,0.00,,,0.00,139,Wunderground v.1.15,2013-06-09 14:46:00,
2013-06-09 07:51:00,52.6,48.8,30.09,South,172,0.0,0.0,87,0.00,,,0.00,142,Wunderground v.1.15,2013-06-09 14:51:00,
2013-06-09 07:56:00,52.8,49.0,30.09,South,172,0.0,0.0,87,0.00,,,0.00,141,Wunderground v.1.15,2013-06-09 14:56:00,
2013-06-09 08:01:00,53.2,49.4,30.09,South,172,1.0,1.0,87,0.00,,,0.00,146,Wunderground v.1.15,2013-06-09 15:01:00,
2013-06-09 08:06:00,53.2,49.4,30.09,South,172,1.0,1.0,87,0.00,,,0.00,139,Wunderground v.1.15,2013-06-09 15:06:00,
2013-06-09 08:11:00,53.3,49.5,30.09,South,172,1.0,2.0,87,0.00,,,0.00,132,Wunderground v.1.15,2013-06-09 15:11:00,
2013-06-09 08:16:00,53.3,49.5,30.09,South,172,0.0,2.0,87,0.00,,,0.00,149,Wunderground v.1.15,2013-06-09 15:16:00,
2013-06-09 08:21:00,53.3,49.2,30.09,South,172,0.0,1.0,86,0.00,,,0.00,176,Wunderground v.1.15,2013-06-09 15:21:00,
2013-06-09 08:26:00,53.4,49.0,30.10,South,172,0.0,1.0,85,0.00,,,0.00,190,Wunderground v.1.15,2013-06-09 15:26:00,
2013-06-09 08:31:00,53.7,49.6,30.09,South,172,1.0,1.0,86,0.00,,,0.00,190,Wunderground v.1.15,2013-06-09 15:31:00,
2013-06-09 08:36:00,53.9,49.5,30.09,South,172,0.0,2.0,85,0.00,,,0.00,192,Wunderground v.1.15,2013-06-09 15:36:00,
2013-06-09 08:41:00,54.0,49.3,30.09,South,172,2.0,2.0,84,0.00,,,0.00,188,Wunderground v.1.15,2013-06-09 15:41:00,
2013-06-09 08:46:00,54.0,49.3,30.09,South,172,4.0,4.0,84,0.00,,,0.00,171,Wunderground v.1.15,2013-06-09 15:46:00,
2013-06-09 08:51:00,54.2,49.8,30.09,South,172,0.0,2.0,85,0.00,,,0.00,183,Wunderground v.1.15,2013-06-09 15:51:00,
2013-06-09 08:56:00,54.1,49.7,30.09,South,172,1.0,4.0,85,0.00,,,0.00,188,Wunderground v.1.15,2013-06-09 15:56:00,
2013-06-09 09:01:00,54.3,49.9,30.09,South,172,1.0,2.0,85,0.00,,,0.00,197,Wunderground v.1.15,2013-06-09 16:01:00,
2013-06-09 09:06:00,54.4,49.7,30.10,South,172,0.0,4.0,84,0.00,,,0.00,204,Wunderground v.1.15,2013-06-09 16:06:00,
2013-06-09 09:11:00,54.7,50.0,30.10,South,172,1.0,2.0,84,0.00,,,0.00,211,Wunderground v.1.15,2013-06-09 16:11:00,
2013-06-09 09:16:00,54.6,49.9,30.10,SSE,149,4.0,5.0,84,0.00,,,0.00,225,Wunderground v.1.15,2013-06-09 16:16:00,
2013-06-09 09:21:00,54.5,49.4,30.10,SE,145,1.0,5.0,83,0.00,,,0.00,302,Wunderground v.1.15,2013-06-09 16:21:00,
2013-06-09 09:26:00,54.9,50.2,30.10,SE,134,1.0,5.0,84,0.00,,,0.00,499,Wunderground v.1.15,2013-06-09 16:26:00,
2013-06-09 09:31:00,55.3,50.2,30.10,ESE,106,5.0,6.0,83,0.00,,,0.00,455,Wunderground v.1.15,2013-06-09 16:31:00,
2013-06-09 09:36:00,55.7,50.3,30.09,ESE,109,0.0,6.0,82,0.00,,,0.00,353,Wunderground v.1.15,2013-06-09 16:36:00,
2013-06-09 09:41:00,55.7,50.3,30.09,ESE,109,0.0,2.0,82,0.00,,,0.00,309,Wunderground v.1.15,2013-06-09 16:41:00,
2013-06-09 09:46:00,55.7,50.3,30.09,ESE,109,1.0,5.0,82,0.00,,,0.00,288,Wunderground v.1.15,2013-06-09 16:46:00,
2013-06-09 09:51:00,55.9,50.5,30.09,ENE,67,2.0,6.0,82,0.00,,,0.00,359,Wunderground v.1.15,2013-06-09 16:51:00,
2013-06-09 09:57:00,56.2,50.1,30.10,NNE,24,4.0,7.0,80,0.00,,,0.00,352,Wunderground v.1.15,2013-06-09 16:57:00,
2013-06-09 10:02:00,56.4,50.6,30.09,ENE,61,2.0,5.0,81,0.00,,,0.00,422,Wunderground v.1.15,2013-06-09 17:02:00,
2013-06-09 10:07:00,57.0,51.2,30.09,NE,35,5.0,6.0,81,0.00,,,0.00,526,Wunderground v.1.15,2013-06-09 17:07:00,
2013-06-09 10:12:00,57.4,51.3,30.09,East,83,3.0,5.0,80,0.00,,,0.00,397,Wunderground v.1.15,2013-06-09 17:12:00,
2013-06-09 10:17:00,57.5,51.4,30.09,ENE,59,3.0,7.0,80,0.00,,,0.00,339,Wunderground v.1.15,2013-06-09 17:17:00,
2013-06-09 10:22:00,57.3,51.5,30.09,East,85,5.0,6.0,81,0.00,,,0.00,821,Wunderground v.1.15,2013-06-09 17:22:00,
2013-06-09 10:27:00,58.1,52.0,30.09,ENE,74,4.0,7.0,80,0.00,,,0.00,791,Wunderground v.1.15,2013-06-09 17:27:00,
2013-06-09 10:32:00,58.8,52.0,30.09,ENE,63,4.0,6.0,78,0.00,,,0.00,814,Wunderground v.1.15,2013-06-09 17:32:00,
2013-06-09 10:37:00,58.8,52.0,30.08,ENE,71,8.0,8.0,78,0.00,,,0.00,770,Wunderground v.1.15,2013-06-09 17:37:00,
2013-06-09 10:42:00,59.0,51.8,30.08,NNE,26,6.0,7.0,77,0.00,,,0.00,766,Wunderground v.1.15,2013-06-09 17:42:00,
2013-06-09 10:47:00,59.0,51.8,30.08,ENE,61,5.0,8.0,77,0.00,,,0.00,782,Wunderground v.1.15,2013-06-09 17:47:00,
2013-06-09 10:52:00,59.7,52.5,30.08,ENE,69,5.0,6.0,77,0.00,,,0.00,849,Wunderground v.1.15,2013-06-09 17:52:00,
2013-06-09 10:57:00,60.0,51.7,30.09,NNE,31,6.0,7.0,74,0.00,,,0.00,838,Wunderground v.1.15,2013-06-09 17:57:00,
2013-06-09 11:02:00,59.8,52.2,30.08,ENE,66,2.0,6.0,76,0.00,,,0.00,417,Wunderground v.1.15,2013-06-09 18:02:00,
2013-06-09 11:07:00,60.6,52.3,30.08,North,355,8.0,8.0,74,0.00,,,0.00,1018,Wunderground v.1.15,2013-06-09 18:07:00,
2013-06-09 11:12:00,60.4,51.7,30.08,North,360,10.0,10.0,73,0.00,,,0.00,911,Wunderground v.1.15,2013-06-09 18:12:00,
2013-06-09 11:17:00,60.5,53.3,30.08,East,82,3.0,10.0,77,0.00,,,0.00,867,Wunderground v.1.15,2013-06-09 18:17:00,
2013-06-09 11:22:00,60.9,52.2,30.09,North,5,5.0,8.0,73,0.00,,,0.00,838,Wunderground v.1.15,2013-06-09 18:22:00,
2013-06-09 11:27:00,61.3,51.8,30.08,ENE,62,1.0,8.0,71,0.00,,,0.00,875,Wunderground v.1.15,2013-06-09 18:27:00,
2013-06-09 11:32:00,61.2,51.7,30.08,East,96,5.0,8.0,71,0.00,,,0.00,900,Wunderground v.1.15,2013-06-09 18:32:00,
2013-06-09 11:37:00,61.7,52.2,30.08,NNE,13,7.0,9.0,71,0.00,,,0.00,919,Wunderground v.1.15,2013-06-09 18:37:00,
2013-06-09 11:42:00,62.0,52.5,30.08,NE,55,0.0,6.0,71,0.00,,,0.00,306,Wunderground v.1.15,2013-06-09 18:42:00,
2013-06-09 11:47:00,62.3,52.0,30.08,NNW,343,7.0,7.0,69,0.00,,,0.00,895,Wunderground v.1.15,2013-06-09 18:47:00,
2013-06-09 11:54:00,62.0,53.2,30.08,ENE,71,8.0,8.0,73,0.00,,,0.00,912,Wunderground v.1.15,2013-06-09 18:54:00,
2013-06-09 11:59:00,63.2,53.6,30.08,East,89,4.0,8.0,71,0.00,,,0.00,911,Wunderground v.1.15,2013-06-09 18:59:00,
2013-06-09 12:04:00,63.6,52.4,30.08,NE,36,3.0,10.0,67,0.00,,,0.00,981,Wunderground v.1.15,2013-06-09 19:04:00,
2013-06-09 12:09:00,63.2,52.1,30.08,ENE,57,3.0,11.0,67,0.00,,,0.00,1002,Wunderground v.1.15,2013-06-09 19:09:00,
2013-06-09 12:14:00,63.5,52.3,30.08,NE,46,4.0,10.0,67,0.00,,,0.00,995,Wunderground v.1.15,2013-06-09 19:14:00,
2013-06-09 12:19:00,64.0,54.0,30.07,ENE,64,5.0,12.0,70,0.00,,,0.00,932,Wunderground v.1.15,2013-06-09 19:19:00,
2013-06-09 12:24:00,64.6,52.1,30.07,NNE,32,5.0,12.0,64,0.00,,,0.00,986,Wunderground v.1.15,2013-06-09 19:24:00,
2013-06-09 12:29:00,65.0,51.7,30.07,North,5,8.0,12.0,62,0.00,,,0.00,1030,Wunderground v.1.15,2013-06-09 19:29:00,
2013-06-09 12:34:00,65.0,51.2,30.07,East,80,3.0,10.0,61,0.00,,,0.00,990,Wunderground v.1.15,2013-06-09 19:34:00,
2013-06-09 12:39:00,65.0,52.5,30.07,North,5,9.0,10.0,64,0.00,,,0.00,1049,Wunderground v.1.15,2013-06-09 19:39:00,
2013-06-09 12:44:00,65.6,53.1,30.07,ENE,67,7.0,7.0,64,0.00,,,0.00,367,Wunderground v.1.15,2013-06-09 19:44:00,
2013-06-09 12:49:00,65.0,52.1,30.07,NE,48,5.0,8.0,63,0.00,,,0.00,279,Wunderground v.1.15,2013-06-09 19:49:00,
2013-06-09 12:54:00,64.4,51.1,30.07,NNE,20,4.0,10.0,62,0.00,,,0.00,258,Wunderground v.1.15,2013-06-09 19:54:00,
2013-06-09 12:59:00,65.0,50.3,30.07,NNE,16,3.0,10.0,59,0.00,,,0.00,1095,Wunderground v.1.15,2013-06-09 19:59:00,
2013-06-09 13:04:00,65.9,50.7,30.06,ENE,66,7.0,11.0,58,0.00,,,0.00,1060,Wunderground v.1.15,2013-06-09 20:04:00,
2013-06-09 13:09:00,66.1,49.5,30.07,NE,36,6.0,12.0,55,0.00,,,0.00,1134,Wunderground v.1.15,2013-06-09 20:09:00,
2013-06-09 13:14:00,66.0,52.6,30.07,NNE,15,7.0,8.0,62,0.00,,,0.00,272,Wunderground v.1.15,2013-06-09 20:14:00,
2013-06-09 13:20:00,65.4,51.6,30.06,ENE,67,0.0,10.0,61,0.00,,,0.00,251,Wunderground v.1.15,2013-06-09 20:20:00,
2013-06-09 13:24:00,65.3,51.5,30.06,NNE,15,6.0,7.0,61,0.00,,,0.00,239,Wunderground v.1.15,2013-06-09 20:24:00,
2013-06-09 13:29:00,65.2,50.5,30.06,NNE,23,1.0,7.0,59,0.00,,,0.00,297,Wunderground v.1.15,2013-06-09 20:29:00,
2013-06-09 13:34:00,66.2,51.0,30.06,NNE,22,4.0,7.0,58,0.00,,,0.00,1020,Wunderground v.1.15,2013-06-09 20:34:00,
2013-06-09 13:39:00,66.7,51.9,30.06,SE,133,1.0,7.0,59,0.00,,,0.00,1088,Wunderground v.1.15,2013-06-09 20:39:00,
2013-06-09 13:44:00,66.2,49.6,30.05,NE,36,1.0,7.0,55,0.00,,,0.00,1179,Wunderground v.1.15,2013-06-09 20:44:00,
2013-06-09 13:50:00,66.5,50.3,30.05,North,5,4.0,4.0,56,0.00,,,0.00,1074,Wunderground v.1.15,2013-06-09 20:50:00,
2013-06-09 13:55:00,66.9,51.2,30.05,ENE,77,0.0,6.0,57,0.00,,,0.00,1049,Wunderground v.1.15,2013-06-09 20:55:00,
2013-06-09 14:00:00,66.6,48.9,30.05,NE,51,5.0,5.0,53,0.00,,,0.00,315,Wunderground v.1.15,2013-06-09 21:00:00,
2013-06-09 14:05:00,67.5,49.3,30.05,NW,315,0.0,9.0,52,0.00,,,0.00,998,Wunderground v.1.15,2013-06-09 21:05:00,
2013-06-09 14:10:00,68.4,48.5,30.04,NW,315,0.0,2.0,49,0.00,,,0.00,1004,Wunderground v.1.15,2013-06-09 21:10:00,
2013-06-09 14:15:00,69.1,51.8,30.04,WSW,245,4.0,7.0,54,0.00,,,0.00,1083,Wunderground v.1.15,2013-06-09 21:15:00,
2013-06-09 14:20:00,68.8,47.2,30.04,WSW,244,6.0,6.0,46,0.00,,,0.00,366,Wunderground v.1.15,2013-06-09 21:20:00,
2013-06-09 14:25:00,68.7,48.2,30.04,NW,325,6.0,8.0,48,0.00,,,0.00,322,Wunderground v.1.15,2013-06-09 21:25:00,
2013-06-09 14:30:00,68.1,47.7,30.04,NNW,327,6.0,6.0,48,0.00,,,0.00,359,Wunderground v.1.15,2013-06-09 21:30:00,
2013-06-09 14:35:00,68.1,49.3,30.04,NNE,24,3.0,7.0,51,0.00,,,0.00,352,Wunderground v.1.15,2013-06-09 21:35:00,
2013-06-09 14:40:00,69.0,51.2,30.03,ENE,62,4.0,4.0,53,0.00,,,0.00,364,Wunderground v.1.15,2013-06-09 21:40:00,
2013-06-09 14:45:00,69.0,48.5,30.03,North,349,7.0,7.0,48,0.00,,,0.00,462,Wunderground v.1.15,2013-06-09 21:45:00,
2013-06-09 14:50:00,69.1,47.4,30.03,WNW,284,7.0,7.0,46,0.00,,,0.00,454,Wunderground v.1.15,2013-06-09 21:50:00,
2013-06-09 14:55:00,69.3,47.0,30.03,West,269,5.0,9.0,45,0.00,,,0.00,1136,Wunderground v.1.15,2013-06-09 21:55:00,
2013-06-09 15:00:00,69.3,48.8,30.03,NW,314,8.0,9.0,48,0.00,,,0.00,420,Wunderground v.1.15,2013-06-09 22:00:00,
2013-06-09 15:05:00,68.9,47.8,30.03,WNW,284,8.0,13.0,47,0.00,,,0.00,355,Wunderground v.1.15,2013-06-09 22:05:00,
2013-06-09 15:10:00,68.7,47.6,30.03,NW,305,8.0,8.0,47,0.00,,,0.00,410,Wunderground v.1.15,2013-06-09 22:10:00,
2013-06-09 15:15:00,69.0,47.9,30.02,WNW,290,4.0,12.0,47,0.00,,,0.00,519,Wunderground v.1.15,2013-06-09 22:15:00,
2013-06-09 15:20:00,69.2,48.7,30.02,NNW,343,5.0,8.0,48,0.00,,,0.00,311,Wunderground v.1.15,2013-06-09 22:20:00,
2013-06-09 15:25:00,69.2,48.7,30.02,North,349,8.0,12.0,48,0.00,,,0.00,884,Wunderground v.1.15,2013-06-09 22:25:00,
2013-06-09 15:30:00,68.8,47.2,30.02,NNW,346,1.0,8.0,46,0.00,,,0.00,427,Wunderground v.1.15,2013-06-09 22:30:00,
2013-06-09 15:35:00,68.8,48.9,30.02,North,350,6.0,8.0,49,0.00,,,0.00,301,Wunderground v.1.15,2013-06-09 22:35:00,
2013-06-09 15:40:00,68.1,47.7,30.02,NNW,330,6.0,10.0,48,0.00,,,0.00,338,Wunderground v.1.15,2013-06-09 22:40:00,
2013-06-09 15:45:00,69.0,49.0,30.02,NNE,19,9.0,11.0,49,0.00,,,0.00,909,Wunderground v.1.15,2013-06-09 22:45:00,
2013-06-09 15:50:00,69.5,48.4,30.02,NW,321,8.0,9.0,47,0.00,,,0.00,889,Wunderground v.1.15,2013-06-09 22:50:00,
2013-06-09 15:55:00,70.0,47.7,30.02,NW,304,5.0,12.0,45,0.00,,,0.00,902,Wunderground v.1.15,2013-06-09 22:55:00,
2013-06-09 16:00:00,70.0,48.3,30.02,WNW,284,9.0,13.0,46,0.00,,,0.00,912,Wunderground v.1.15,2013-06-09 23:00:00,
2013-06-09 16:05:00,70.2,48.4,30.02,West,265,5.0,13.0,46,0.00,,,0.00,905,Wunderground v.1.15,2013-06-09 23:05:00,
2013-06-09 16:10:00,70.6,48.2,30.01,WNW,288,6.0,8.0,45,0.00,,,0.00,867,Wunderground v.1.15,2013-06-09 23:10:00,
2013-06-09 16:15:00,70.2,48.4,30.01,WNW,303,5.0,16.0,46,0.00,,,0.00,870,Wunderground v.1.15,2013-06-09 23:15:00,
2013-06-09 16:20:00,69.9,48.7,30.01,NW,311,9.0,12.0,47,0.00,,,0.00,821,Wunderground v.1.15,2013-06-09 23:20:00,
2013-06-09 16:25:00,70.0,48.8,30.01,North,355,6.0,15.0,47,0.00,,,0.00,800,Wunderground v.1.15,2013-06-09 23:25:00,
2013-06-09 16:30:00,70.1,48.9,30.01,North,5,4.0,9.0,47,0.00,,,0.00,772,Wunderground v.1.15,2013-06-09 23:30:00,
2013-06-09 16:35:00,70.6,50.0,30.02,NW,325,10.0,10.0,48,0.00,,,0.00,833,Wunderground v.1.15,2013-06-09 23:35:00,
2013-06-09 16:40:00,70.4,49.2,30.02,West,267,10.0,13.0,47,0.00,,,0.00,867,Wunderground v.1.15,2013-06-09 23:40:00,
2013-06-09 16:45:00,70.6,48.8,30.01,NNE,15,11.0,13.0,46,0.00,,,0.00,668,Wunderground v.1.15,2013-06-09 23:45:00,
2013-06-09 16:50:00,70.1,48.9,30.01,NNW,332,4.0,7.0,47,0.00,,,0.00,613,Wunderground v.1.15,2013-06-09 23:50:00,
2013-06-09 16:55:00,70.1,48.9,30.01,NNW,336,10.0,15.0,47,0.00,,,0.00,504,Wunderground v.1.15,2013-06-09 23:55:00,
2013-06-09 17:00:00,69.0,48.5,30.01,NW,310,7.0,8.0,48,0.00,,,0.00,394,Wunderground v.1.15,2013-06-10 00:00:00,
2013-06-09 17:05:00,69.5,49.5,30.01,West,265,3.0,9.0,49,0.00,,,0.00,392,Wunderground v.1.15,2013-06-10 00:05:00,
2013-06-09 17:10:00,69.5,48.4,30.01,NW,319,10.0,17.0,47,0.00,,,0.00,359,Wunderground v.1.15,2013-06-10 00:10:00,
2013-06-09 17:16:00,69.6,49.0,30.01,WNW,292,14.0,19.0,48,0.00,,,0.00,652,Wunderground v.1.15,2013-06-10 00:16:00,
2013-06-09 17:21:00,68.8,48.3,30.01,NW,315,13.0,15.0,48,0.00,,,0.00,584,Wunderground v.1.15,2013-06-10 00:21:00,
2013-06-09 17:26:00,68.9,48.4,30.01,NNW,347,10.0,15.0,48,0.00,,,0.00,563,Wunderground v.1.15,2013-06-10 00:26:00,
2013-06-09 17:31:00,68.9,48.4,30.01,NW,314,12.0,15.0,48,0.00,,,0.00,554,Wunderground v.1.15,2013-06-10 00:31:00,
2013-06-09 17:36:00,68.9,48.4,30.01,NNW,335,9.0,15.0,48,0.00,,,0.00,550,Wunderground v.1.15,2013-06-10 00:36:00,
2013-06-09 17:41:00,68.4,48.5,30.01,NNW,327,9.0,16.0,49,0.00,,,0.00,540,Wunderground v.1.15,2013-06-10 00:41:00,
2013-06-09 17:47:00,68.4,48.5,30.01,West,279,11.0,16.0,49,0.00,,,0.00,545,Wunderground v.1.15,2013-06-10 00:47:00,
2013-06-09 17:54:00,69.3,49.9,30.01,WNW,295,14.0,14.0,50,0.00,,,0.00,492,Wunderground v.1.15,2013-06-10 00:54:00,
2013-06-09 17:59:00,68.6,48.7,30.01,WNW,293,14.0,19.0,49,0.00,,,0.00,490,Wunderground v.1.15,2013-06-10 00:59:00,
2013-06-09 18:04:00,68.3,48.9,30.00,NW,319,10.0,14.0,50,0.00,,,0.00,485,Wunderground v.1.15,2013-06-10 01:04:00,
2013-06-09 18:09:00,67.7,48.4,30.00,NW,305,11.0,17.0,50,0.00,,,0.00,432,Wunderground v.1.15,2013-06-10 01:09:00,
2013-06-09 18:14:00,67.7,48.9,30.00,WNW,302,11.0,22.0,51,0.00,,,0.00,410,Wunderground v.1.15,2013-06-10 01:14:00,
2013-06-09 18:19:00,67.0,48.8,30.00,WNW,296,5.0,22.0,52,0.00,,,0.00,397,Wunderground v.1.15,2013-06-10 01:19:00,
2013-06-09 18:24:00,67.0,48.8,30.00,NW,315,9.0,17.0,52,0.00,,,0.00,378,Wunderground v.1.15,2013-06-10 01:24:00,
2013-06-09 18:29:00,66.3,48.7,30.00,WNW,285,16.0,17.0,53,0.00,,,0.00,369,Wunderground v.1.15,2013-06-10 01:29:00,
2013-06-09 18:34:00,66.3,48.7,30.00,WNW,292,13.0,19.0,53,0.00,,,0.00,353,Wunderground v.1.15,2013-06-10 01:34:00,
2013-06-09 18:39:00,65.9,48.3,30.00,WNW,292,8.0,22.0,53,0.00,,,0.00,343,Wunderground v.1.15,2013-06-10 01:39:00,
2013-06-09 18:44:00,65.7,48.6,30.00,NW,311,12.0,17.0,54,0.00,,,0.00,323,Wunderground v.1.15,2013-06-10 01:44:00,
2013-06-09 18:49:00,65.2,48.6,30.00,NW,305,12.0,19.0,55,0.00,,,0.00,304,Wunderground v.1.15,2013-06-10 01:49:00,
2013-06-09 18:54:00,64.9,48.8,30.00,NW,323,10.0,18.0,56,0.00,,,0.00,287,Wunderground v.1.15,2013-06-10 01:54:00,
2013-06-09 18:59:00,64.8,48.2,30.00,NNW,332,11.0,18.0,55,0.00,,,0.00,272,Wunderground v.1.15,2013-06-10 01:59:00,
2013-06-09 19:04:00,64.6,48.1,30.00,WNW,300,12.0,17.0,55,0.00,,,0.00,258,Wunderground v.1.15,2013-06-10 02:04:00,
2013-06-09 19:09:00,64.2,47.7,30.00,WNW,298,14.0,20.0,55,0.00,,,0.00,246,Wunderground v.1.15,2013-06-10 02:09:00,
2013-06-09 19:14:00,64.0,47.5,30.00,WNW,298,11.0,15.0,55,0.00,,,0.00,232,Wunderground v.1.15,2013-06-10 02:14:00,
2013-06-09 19:19:00,63.8,47.8,30.00,WNW,302,11.0,16.0,56,0.00,,,0.00,218,Wunderground v.1.15,2013-06-10 02:19:00,
2013-06-09 19:24:00,63.6,48.1,30.00,NW,317,8.0,17.0,57,0.00,,,0.00,204,Wunderground v.1.15,2013-06-10 02:24:00,
2013-06-09 19:29:00,63.4,47.9,30.00,WNW,294,12.0,18.0,57,0.00,,,0.00,192,Wunderground v.1.15,2013-06-10 02:29:00,
2013-06-09 19:34:00,63.2,48.2,30.00,WNW,300,11.0,16.0,58,0.00,,,0.00,178,Wunderground v.1.15,2013-06-10 02:34:00,
2013-06-09 19:39:00,62.7,47.7,30.00,NW,309,12.0,21.0,58,0.00,,,0.00,167,Wunderground v.1.15,2013-06-10 02:39:00,
2013-06-09 19:44:00,62.0,47.0,30.00,WNW,287,13.0,18.0,58,0.00,,,0.00,153,Wunderground v.1.15,2013-06-10 02:44:00,
2013-06-09 19:49:00,62.0,47.0,30.00,WNW,296,13.0,19.0,58,0.00,,,0.00,141,Wunderground v.1.15,2013-06-10 02:49:00,
2013-06-09 19:54:00,61.6,47.1,30.01,NW,304,8.0,15.0,59,0.00,,,0.00,128,Wunderground v.1.15,2013-06-10 02:54:00,
2013-06-09 19:59:00,61.3,46.8,30.01,NW,304,7.0,18.0,59,0.00,,,0.00,116,Wunderground v.1.15,2013-06-10 02:59:00,
2013-06-09 20:04:00,61.0,46.6,30.01,WNW,302,8.0,16.0,59,0.00,,,0.00,104,Wunderground v.1.15,2013-06-10 03:04:00,
2013-06-09 20:09:00,60.8,46.8,30.01,NW,316,6.0,16.0,60,0.00,,,0.00,91,Wunderground v.1.15,2013-06-10 03:09:00,
2013-06-09 20:15:00,60.7,46.7,30.01,West,279,12.0,13.0,60,0.00,,,0.00,81,Wunderground v.1.15,2013-06-10 03:15:00,
2013-06-09 20:20:00,60.3,46.4,30.01,NW,305,12.0,12.0,60,0.00,,,0.00,69,Wunderground v.1.15,2013-06-10 03:20:00,
2013-06-09 20:25:00,60.0,46.5,30.01,NW,323,8.0,13.0,61,0.00,,,0.00,58,Wunderground v.1.15,2013-06-10 03:25:00,
2013-06-09 20:30:00,59.7,46.2,30.01,WNW,303,5.0,7.0,61,0.00,,,0.00,49,Wunderground v.1.15,2013-06-10 03:30:00,
2013-06-09 20:35:00,59.3,46.3,30.01,WNW,297,8.0,12.0,62,0.00,,,0.00,39,Wunderground v.1.15,2013-06-10 03:35:00,
2013-06-09 20:40:00,58.7,45.7,30.01,NW,309,11.0,12.0,62,0.00,,,0.00,30,Wunderground v.1.15,2013-06-10 03:40:00,
2013-06-09 20:45:00,58.3,45.8,30.01,NW,309,6.0,13.0,63,0.00,,,0.00,12,Wunderground v.1.15,2013-06-10 03:45:00,
2013-06-09 20:50:00,57.9,46.2,30.01,NW,316,6.0,8.0,65,0.00,,,0.00,11,Wunderground v.1.15,2013-06-10 03:50:00,
2013-06-09 20:55:00,57.5,45.8,30.01,NW,319,7.0,8.0,65,0.00,,,0.00,7,Wunderground v.1.15,2013-06-10 03:55:00,
2013-06-09 21:00:00,57.1,45.8,30.01,NW,323,6.0,6.0,66,0.00,,,0.00,5,Wunderground v.1.15,2013-06-10 04:00:00,
2013-06-09 21:01:00,57.0,45.7,30.01,NW,323,9.0,9.0,66,0.00,,,0.00,5,Wunderground v.1.15,2013-06-10 04:01:00,
2013-06-09 21:02:00,56.9,46.1,30.01,WNW,299,2.0,10.0,67,0.00,,,0.00,5,Wunderground v.1.15,2013-06-10 04:02:00,
2013-06-09 21:07:00,56.5,45.7,30.01,NW,314,9.0,12.0,67,0.00,,,0.00,0,Wunderground v.1.15,2013-06-10 04:07:00,
2013-06-09 21:12:00,56.1,45.7,30.01,WNW,296,5.0,9.0,68,0.00,,,0.00,0,Wunderground v.1.15,2013-06-10 04:12:00,
2013-06-09 21:17:00,55.8,45.8,30.01,NNW,329,6.0,9.0,69,0.00,,,0.00,0,Wunderground v.1.15,2013-06-10 04:17:00,
2013-06-09 21:22:00,55.5,45.9,30.02,NNW,340,2.0,7.0,70,0.00,,,0.00,0,Wunderground v.1.15,2013-06-10 04:22:00,
2013-06-09 21:27:00,55.3,45.7,30.02,NW,325,10.0,11.0,70,0.00,,,0.00,0,Wunderground v.1.15,2013-06-10 04:27:00,
2013-06-09 21:32:00,54.9,45.7,30.02,NW,321,6.0,9.0,71,0.00,,,0.00,0,Wunderground v.1.15,2013-06-10 04:32:00,
2013-06-09 21:37:00,54.7,45.5,30.02,NW,314,2.0,9.0,71,0.00,,,0.00,0,Wunderground v.1.15,2013-06-10 04:37:00,
2013-06-09 21:42:00,54.5,45.3,30.02,NW,304,7.0,8.0,71,0.00,,,0.00,0,Wunderground v.1.15,2013-06-10 04:42:00,
2013-06-09 21:47:00,54.4,45.2,30.02,NW,313,2.0,8.0,71,0.00,,,0.00,0,Wunderground v.1.15,2013-06-10 04:47:00,
2013-06-09 21:52:00,54.3,45.1,30.02,NNW,341,4.0,9.0,71,0.00,,,0.00,0,Wunderground v.1.15,2013-06-10 04:52:00,
2013-06-09 21:57:00,54.2,45.0,30.03,NW,310,2.0,9.0,71,0.00,,,0.00,0,Wunderground v.1.15,2013-06-10 04:57:00,
2013-06-09 22:02:00,54.0,45.2,30.03,NW,308,4.0,7.0,72,0.00,,,0.00,0,Wunderground v.1.15,2013-06-10 05:02:00,
2013-06-09 22:07:00,54.0,45.2,30.03,NNW,330,1.0,7.0,72,0.00,,,0.00,0,Wunderground v.1.15,2013-06-10 05:07:00,
2013-06-09 22:12:00,53.7,44.9,30.03,NNW,345,5.0,6.0,72,0.00,,,0.00,0,Wunderground v.1.15,2013-06-10 05:12:00,
2013-06-09 22:17:00,53.5,45.1,30.03,NW,323,7.0,7.0,73,0.00,,,0.00,0,Wunderground v.1.15,2013-06-10 05:17:00,
2013-06-09 22:22:00,53.4,45.0,30.03,NW,317,5.0,9.0,73,0.00,,,0.00,0,Wunderground v.1.15,2013-06-10 05:22:00,
2013-06-09 22:27:00,53.4,45.0,30.03,NW,315,5.0,9.0,73,0.00,,,0.00,0,Wunderground v.1.15,2013-06-10 05:27:00,
2013-06-09 22:32:00,53.3,44.9,30.03,NNW,333,7.0,8.0,73,0.00,,,0.00,0,Wunderground v.1.15,2013-06-10 05:32:00,
2013-06-09 22:37:00,53.2,44.8,30.03,NW,325,5.0,9.0,73,0.00,,,0.00,0,Wunderground v.1.15,2013-06-10 05:37:00,
2013-06-09 22:42:00,53.1,44.7,30.03,WNW,284,7.0,12.0,73,0.00,,,0.00,0,Wunderground v.1.15,2013-06-10 05:42:00,
2013-06-09 22:47:00,53.0,44.9,30.04,WNW,300,5.0,12.0,74,0.00,,,0.00,0,Wunderground v.1.15,2013-06-10 05:47:00,
2013-06-09 22:52:00,52.8,44.7,30.04,WNW,302,6.0,9.0,74,0.00,,,0.00,0,Wunderground v.1.15,2013-06-10 05:52:00,
2013-06-09 22:57:00,52.7,44.6,30.03,WNW,298,5.0,9.0,74,0.00,,,0.00,0,Wunderground v.1.15,2013-06-10 05:57:00,
2013-06-09 23:02:00,52.6,44.9,30.03,NW,312,2.0,5.0,75,0.00,,,0.00,0,Wunderground v.1.15,2013-06-10 06:02:00,
2013-06-09 23:07:00,52.4,44.7,30.03,NW,312,1.0,5.0,75,0.00,,,0.00,0,Wunderground v.1.15,2013-06-10 06:07:00,
2013-06-09 23:12:00,52.3,45.0,30.04,NW,312,1.0,4.0,76,0.00,,,0.00,0,Wunderground v.1.15,2013-06-10 06:12:00,
2013-06-09 23:17:00,52.2,44.9,30.04,NW,312,0.0,4.0,76,0.00,,,0.00,0,Wunderground v.1.15,2013-06-10 06:17:00,
2013-06-09 23:22:00,51.9,44.6,30.03,NW,312,0.0,1.0,76,0.00,,,0.00,0,Wunderground v.1.15,2013-06-10 06:22:00,
2013-06-09 23:27:00,51.5,44.5,30.03,NW,312,0.0,1.0,77,0.00,,,0.00,0,Wunderground v.1.15,2013-06-10 06:27:00,
2013-06-09 23:32:00,51.5,44.5,30.03,NW,312,1.0,2.0,77,0.00,,,0.00,0,Wunderground v.1.15,2013-06-10 06:32:00,
2013-06-09 23:37:00,51.3,44.3,30.03,NW,312,4.0,4.0,77,0.00,,,0.00,0,Wunderground v.1.15,2013-06-10 06:37:00,
2013-06-09 23:42:00,51.0,44.4,30.03,NW,312,4.0,5.0,78,0.00,,,0.00,0,Wunderground v.1.15,2013-06-10 06:42:00,
2013-06-09 23:47:00,50.9,44.3,30.04,NW,312,0.0,5.0,78,0.00,,,0.00,0,Wunderground v.1.15,2013-06-10 06:47:00,
2013-06-09 23:54:00,50.2,43.9,30.04,NW,312,0.0,1.0,79,0.00,,,0.00,0,Wunderground v.1.15,2013-06-10 06:54:00,
2013-06-09 23:59:00,49.2,43.6,30.04,NW,312,0.0,1.0,81,0.00,,,0.00,0,Wunderground v.1.15,2013-06-10 06:59:00,